Portada
METAR-TAF:

METAR-TAF

Aeroports :

Srinagar, Índia

latitud: 33-59-14N, longitud: 074-46-27E, altitud: 1655 m

METAR: manca

Hora: 01:09 (19:39 UTC)

Pronòstic

L'informe es va fer fa 4 hores i 9 minuts, a les 15:30 UTC
Pronòstic vàlid del 23 a les 18 UTC al 24 a les 06 UTC
Vent 2 kt amb direcció variable
Visibilitat: 6000 m
Núvols disperses a una alçada de 2500 ft
Temporalment
l' 24 a les 01 UTC al 24 a les 03 UTC
Visibilitat: 3000 m
fum

TAF: VISR 231530Z 2318/2406 VRB02KT 6000 SCT025 TEMPO 2401/2403 3000 FU

Observacions i pronòstics meteorològics de més de 4000 aeroports (METAR i TAF).

Les estacions disponibles són els punts grocs i vermells al mapa.

Posi el ratolí al punt desitjat per veure el nom de l'estació.

Feu clic per veure les observacions i els pronòstics meteorològics.

Per canviar el mapa: feu clic els botons verds amb una creu de color negre per apropar; al botó verd amb un guió per allunyar la imatge; o en les fletxes verdes per a mapes adjacents.


METAR-TAF: